createdAt,value
2018-07-21T00:01:31.473Z,25.20
2018-07-21T00:03:59.771Z,25.30
2018-07-21T00:06:27.992Z,25.20
2018-07-21T00:08:56.337Z,25.20
2018-07-21T00:11:24.574Z,25.30
2018-07-21T00:13:52.838Z,25.20
2018-07-21T00:16:21.286Z,25.20
2018-07-21T00:18:49.570Z,25.10
2018-07-21T00:21:17.797Z,25.10
2018-07-21T00:23:45.991Z,25.10
2018-07-21T00:26:14.213Z,25.10
2018-07-21T00:28:42.491Z,25.10
2018-07-21T00:31:10.739Z,25.10
2018-07-21T00:33:38.934Z,25.10
2018-07-21T00:36:07.161Z,25.00
2018-07-21T00:38:35.427Z,25.00
2018-07-21T00:41:03.687Z,25.00
2018-07-21T00:43:31.891Z,25.00
2018-07-21T00:46:00.080Z,25.00
2018-07-21T00:48:28.289Z,24.90
2018-07-21T00:50:56.479Z,24.90
2018-07-21T00:53:28.732Z,24.90
2018-07-21T00:55:56.906Z,24.90
2018-07-21T00:58:25.146Z,24.70
2018-07-21T01:00:53.370Z,24.60
2018-07-21T01:03:21.647Z,24.60
2018-07-21T01:05:49.861Z,24.60
2018-07-21T01:08:18.090Z,24.60
2018-07-21T01:10:46.457Z,24.70
2018-07-21T01:13:14.726Z,24.70
2018-07-21T01:15:43.027Z,24.70
2018-07-21T01:18:11.222Z,24.70
2018-07-21T01:20:39.454Z,24.70
2018-07-21T01:23:07.687Z,24.70
2018-07-21T01:25:35.919Z,24.60
2018-07-21T01:28:04.128Z,24.60
2018-07-21T01:30:32.367Z,24.60
2018-07-21T01:33:00.565Z,24.60
2018-07-21T01:35:28.820Z,24.60
2018-07-21T01:37:57.014Z,24.60
2018-07-21T01:40:25.522Z,24.60
2018-07-21T01:42:53.844Z,24.60
2018-07-21T01:45:22.102Z,24.50
2018-07-21T01:47:50.400Z,24.50
2018-07-21T01:50:18.665Z,24.40
2018-07-21T01:52:46.925Z,24.40
2018-07-21T01:55:15.139Z,24.30
2018-07-21T01:57:43.341Z,24.30
2018-07-21T02:00:11.574Z,24.20
2018-07-21T02:02:39.762Z,24.30
2018-07-21T02:05:07.963Z,24.20
2018-07-21T02:07:36.504Z,24.20
2018-07-21T02:10:04.755Z,24.20
2018-07-21T02:12:32.975Z,24.20
2018-07-21T02:15:01.272Z,24.10
2018-07-21T02:17:29.537Z,23.90
2018-07-21T02:19:57.758Z,23.70
2018-07-21T02:22:26.017Z,23.50
2018-07-21T02:24:54.225Z,23.50
2018-07-21T02:27:23.387Z,23.50
2018-07-21T02:29:51.709Z,23.50
2018-07-21T02:32:20.406Z,23.50
2018-07-21T02:34:48.804Z,23.40
2018-07-21T02:37:17.089Z,23.40
2018-07-21T02:39:45.409Z,23.30
2018-07-21T02:42:13.815Z,23.30
2018-07-21T02:44:42.159Z,23.20
2018-07-21T02:47:10.462Z,23.20
2018-07-21T02:49:38.804Z,23.20
2018-07-21T02:54:35.284Z,23.20
2018-07-21T02:57:03.540Z,23.20
2018-07-21T03:02:00.586Z,23.20
2018-07-21T03:04:28.916Z,23.00
2018-07-21T03:06:57.348Z,22.90
2018-07-21T03:09:25.795Z,22.90
2018-07-21T03:11:54.039Z,22.90
2018-07-21T03:14:22.319Z,22.90
2018-07-21T03:16:50.643Z,22.90
2018-07-21T03:19:18.886Z,22.90
2018-07-21T03:21:47.176Z,22.90
2018-07-21T03:24:15.499Z,22.90
2018-07-21T03:26:43.945Z,22.90
2018-07-21T03:29:12.388Z,22.90
2018-07-21T03:31:40.931Z,22.80
2018-07-21T03:34:09.342Z,22.70
2018-07-21T03:36:37.631Z,22.60
2018-07-21T03:39:09.271Z,22.70
2018-07-21T03:41:37.590Z,22.70
2018-07-21T03:44:05.941Z,22.70
2018-07-21T03:46:34.423Z,22.70
2018-07-21T03:49:02.794Z,22.80
2018-07-21T03:51:31.178Z,22.70
2018-07-21T03:53:59.509Z,22.80
2018-07-21T03:56:27.910Z,22.80
2018-07-21T03:58:56.131Z,22.80
2018-07-21T04:01:24.390Z,22.90
2018-07-21T04:03:52.663Z,22.90
2018-07-21T04:06:20.930Z,22.90
2018-07-21T04:08:49.196Z,22.90
2018-07-21T04:11:17.415Z,22.80
2018-07-21T04:13:45.650Z,22.70
2018-07-21T04:16:13.875Z,22.70
2018-07-21T04:18:42.183Z,22.60
2018-07-21T04:21:10.426Z,22.60
2018-07-21T04:23:38.707Z,22.60
2018-07-21T04:26:06.938Z,22.70
2018-07-21T04:28:35.327Z,22.70
2018-07-21T04:31:04.162Z,22.60
2018-07-21T04:33:32.386Z,22.70
2018-07-21T04:36:00.687Z,22.70
2018-07-21T04:38:28.913Z,22.80
2018-07-21T04:40:57.141Z,22.80
2018-07-21T04:43:25.376Z,22.80
2018-07-21T04:45:53.597Z,22.70
2018-07-21T04:48:21.859Z,22.60
2018-07-21T04:50:50.139Z,22.50
2018-07-21T04:53:18.390Z,22.50
2018-07-21T04:55:46.727Z,22.50
2018-07-21T04:58:15.051Z,22.50
2018-07-21T05:00:43.338Z,22.50
2018-07-21T05:03:11.492Z,22.50
2018-07-21T05:05:39.706Z,22.50
2018-07-21T05:08:07.945Z,22.50
2018-07-21T05:10:36.466Z,22.50
2018-07-21T05:13:05.010Z,22.50
2018-07-21T05:15:33.205Z,22.40
2018-07-21T05:18:01.423Z,22.40
2018-07-21T05:20:36.450Z,22.30
2018-07-21T05:23:04.703Z,22.30
2018-07-21T05:25:32.999Z,22.40
2018-07-21T05:28:01.224Z,22.40
2018-07-21T05:30:30.058Z,22.50
2018-07-21T05:32:58.315Z,22.60
2018-07-21T05:35:26.543Z,22.70
2018-07-21T05:37:54.777Z,22.80
2018-07-21T05:40:23.018Z,22.90
2018-07-21T05:42:51.399Z,23.10
2018-07-21T05:45:19.585Z,23.10
2018-07-21T05:47:47.878Z,23.20
2018-07-21T05:50:16.150Z,23.30
2018-07-21T05:52:44.402Z,23.30
2018-07-21T05:55:12.674Z,23.30
2018-07-21T05:57:40.905Z,23.30
2018-07-21T06:00:11.452Z,23.30
2018-07-21T06:02:39.736Z,23.40
2018-07-21T06:05:08.428Z,23.50
2018-07-21T06:07:36.659Z,23.80
2018-07-21T06:10:05.121Z,24.10
2018-07-21T06:12:34.386Z,24.20
2018-07-21T06:15:02.597Z,24.30
2018-07-21T06:17:30.858Z,24.20
2018-07-21T06:19:59.336Z,24.20
2018-07-21T06:22:27.567Z,24.20
2018-07-21T06:24:55.795Z,24.30
2018-07-21T06:27:24.018Z,24.30
2018-07-21T06:29:52.313Z,24.30
2018-07-21T06:32:20.511Z,24.30
2018-07-21T06:34:48.767Z,24.30
2018-07-21T06:37:17.634Z,24.30
2018-07-21T06:39:45.944Z,24.30
2018-07-21T06:42:14.154Z,24.30
2018-07-21T06:44:42.415Z,24.30
2018-07-21T06:47:10.791Z,24.30
2018-07-21T06:49:39.042Z,24.30
2018-07-21T06:52:07.370Z,24.30
2018-07-21T06:54:35.688Z,24.30
2018-07-21T06:57:03.894Z,24.20
2018-07-21T06:59:32.466Z,24.20
2018-07-21T07:02:00.762Z,24.30
2018-07-21T07:04:35.701Z,24.30
2018-07-21T07:07:03.938Z,24.40
2018-07-21T07:09:32.330Z,24.50
2018-07-21T07:12:00.591Z,24.50
2018-07-21T07:14:28.950Z,24.60
2018-07-21T07:16:57.197Z,24.70
2018-07-21T07:19:25.457Z,24.90
2018-07-21T07:21:53.739Z,25.00
2018-07-21T07:24:22.114Z,25.10
2018-07-21T07:26:50.323Z,25.20
2018-07-21T07:29:18.983Z,25.30
2018-07-21T07:31:47.243Z,25.30
2018-07-21T07:34:15.576Z,25.40
2018-07-21T07:36:44.787Z,25.40
2018-07-21T07:39:13.154Z,25.40
2018-07-21T07:41:41.456Z,25.50
2018-07-21T07:44:10.225Z,25.50
2018-07-21T07:46:38.501Z,25.50
2018-07-21T07:49:07.087Z,25.60
2018-07-21T07:51:35.586Z,25.60
2018-07-21T07:54:04.471Z,25.50
2018-07-21T07:56:33.043Z,25.30
2018-07-21T07:59:01.485Z,25.10
2018-07-21T08:01:30.143Z,25.00
2018-07-21T08:03:59.710Z,24.90
2018-07-21T08:06:28.670Z,25.00
2018-07-21T08:08:57.506Z,25.10
2018-07-21T08:11:25.926Z,25.20
2018-07-21T08:13:54.553Z,25.40
2018-07-21T08:16:22.849Z,25.40
2018-07-21T08:18:51.187Z,25.80
2018-07-21T08:21:19.439Z,27.20
2018-07-21T08:23:48.266Z,28.80
2018-07-21T08:26:16.557Z,30.10
2018-07-21T08:28:44.787Z,31.60
2018-07-21T08:31:13.097Z,32.30
2018-07-21T08:36:09.492Z,33.20
2018-07-21T08:38:37.771Z,33.60
2018-07-21T08:41:06.572Z,33.60
2018-07-21T08:43:34.838Z,33.60
2018-07-21T08:46:03.114Z,33.60
2018-07-21T08:48:31.378Z,34.40
2018-07-21T08:50:59.643Z,34.70
2018-07-21T08:53:27.856Z,34.90
2018-07-21T08:55:56.103Z,35.40
2018-07-21T08:58:24.310Z,36.10
2018-07-21T09:00:52.554Z,36.60
2018-07-21T09:03:20.779Z,36.70
2018-07-21T09:05:49.079Z,37.10
2018-07-21T09:08:17.290Z,37.10
2018-07-21T09:10:45.624Z,36.90
2018-07-21T09:13:13.932Z,35.60
2018-07-21T09:15:42.116Z,34.40
2018-07-21T09:18:10.448Z,33.50
2018-07-21T09:20:38.730Z,33.00
2018-07-21T09:23:07.159Z,32.50
2018-07-21T09:25:35.403Z,31.80
2018-07-21T09:28:03.950Z,31.40
2018-07-21T09:30:32.169Z,31.20
2018-07-21T09:33:00.569Z,31.10
2018-07-21T09:35:28.819Z,30.90
2018-07-21T09:37:57.074Z,30.90
2018-07-21T09:40:25.428Z,30.80
2018-07-21T09:42:53.749Z,30.60
2018-07-21T09:45:21.998Z,30.30
2018-07-21T09:47:50.296Z,30.20
2018-07-21T09:50:19.155Z,30.10
2018-07-21T09:52:47.384Z,29.90
2018-07-21T09:55:16.503Z,29.80
2018-07-21T09:57:44.806Z,29.80
2018-07-21T10:00:17.346Z,29.80
2018-07-21T10:02:45.664Z,29.60
2018-07-21T10:05:13.948Z,29.60
2018-07-21T10:07:43.296Z,29.60
2018-07-21T10:10:11.659Z,29.50
2018-07-21T10:12:39.877Z,29.30
2018-07-21T10:15:08.210Z,29.20
2018-07-21T10:17:36.466Z,29.20
2018-07-21T10:20:04.891Z,29.20
2018-07-21T10:22:33.178Z,29.20
2018-07-21T10:25:06.742Z,29.30
2018-07-21T10:27:40.322Z,29.30
2018-07-21T10:30:08.677Z,29.30
2018-07-21T10:32:36.845Z,29.40
2018-07-21T10:35:05.094Z,29.40
2018-07-21T10:37:33.436Z,29.50
2018-07-21T10:40:04.430Z,29.60
2018-07-21T10:42:32.767Z,29.60
2018-07-21T10:45:01.014Z,29.70
2018-07-21T10:47:29.366Z,29.70
2018-07-21T10:49:57.596Z,29.80
2018-07-21T10:52:25.826Z,29.80
2018-07-21T10:54:57.120Z,29.80
2018-07-21T10:57:25.809Z,29.90
2018-07-21T10:59:54.051Z,30.00
2018-07-21T11:02:22.320Z,30.20
2018-07-21T11:04:50.602Z,30.30
2018-07-21T11:07:18.926Z,30.50
2018-07-21T11:09:47.227Z,30.50
2018-07-21T11:12:15.518Z,30.50
2018-07-21T11:14:43.833Z,30.40
2018-07-21T11:17:12.058Z,30.30
2018-07-21T11:19:40.303Z,30.30
2018-07-21T11:22:09.697Z,30.00
2018-07-21T11:24:37.927Z,29.70
2018-07-21T11:27:06.166Z,29.50
2018-07-21T11:29:34.397Z,29.60
2018-07-21T11:32:02.658Z,29.50
2018-07-21T11:34:30.956Z,29.70
2018-07-21T11:36:59.210Z,29.80
2018-07-21T11:39:27.442Z,29.80
2018-07-21T11:41:55.762Z,30.10
2018-07-21T11:44:24.037Z,30.30
2018-07-21T11:46:52.276Z,30.60
2018-07-21T11:49:20.624Z,30.80
2018-07-21T11:51:48.916Z,31.00
2018-07-21T11:54:17.210Z,31.10
2018-07-21T11:56:45.486Z,31.20
2018-07-21T11:59:13.809Z,31.20
2018-07-21T12:01:42.052Z,31.20
2018-07-21T12:04:10.247Z,31.30
2018-07-21T12:06:38.460Z,31.20
2018-07-21T12:09:07.972Z,31.20
2018-07-21T12:11:36.413Z,30.90
2018-07-21T12:16:32.714Z,30.60
2018-07-21T12:19:01.024Z,30.50
2018-07-21T12:21:29.280Z,30.50
2018-07-21T12:23:57.688Z,30.50
2018-07-21T12:26:26.048Z,30.40
2018-07-21T12:28:54.283Z,30.40
2018-07-21T12:31:22.940Z,30.40
2018-07-21T12:33:51.261Z,30.50
2018-07-21T12:36:19.560Z,30.50
2018-07-21T12:38:48.071Z,30.50
2018-07-21T12:41:16.358Z,30.60
2018-07-21T12:43:44.639Z,30.70
2018-07-21T12:46:12.890Z,30.70
2018-07-21T12:48:41.138Z,30.70
2018-07-21T12:51:09.548Z,30.80
2018-07-21T12:53:37.832Z,30.80
2018-07-21T12:56:06.065Z,30.90
2018-07-21T12:58:34.841Z,30.90
2018-07-21T13:01:03.102Z,31.00
2018-07-21T13:03:32.122Z,31.20
2018-07-21T13:06:00.348Z,30.40
2018-07-21T13:08:28.637Z,31.60
2018-07-21T13:10:57.342Z,31.80
2018-07-21T13:13:25.620Z,31.90
2018-07-21T13:15:53.863Z,32.10
2018-07-21T13:18:22.114Z,32.10
2018-07-21T13:20:50.353Z,31.90
2018-07-21T13:23:18.582Z,31.70
2018-07-21T13:25:46.870Z,31.40
2018-07-21T13:28:15.087Z,31.10
2018-07-21T13:30:43.429Z,30.80
2018-07-21T13:33:11.678Z,30.70
2018-07-21T13:35:39.910Z,30.50
2018-07-21T13:38:08.161Z,30.30
2018-07-21T13:40:36.535Z,30.10
2018-07-21T13:43:04.861Z,30.10
2018-07-21T13:45:33.135Z,30.00
2018-07-21T13:48:01.371Z,29.90
2018-07-21T13:50:29.670Z,30.00
2018-07-21T13:52:57.924Z,30.00
2018-07-21T13:55:26.210Z,30.00
2018-07-21T13:57:54.423Z,30.30
2018-07-21T14:00:22.718Z,30.40
2018-07-21T14:02:50.924Z,30.30
2018-07-21T14:05:19.359Z,30.30
2018-07-21T14:07:47.641Z,30.30
2018-07-21T14:10:15.953Z,30.30
2018-07-21T14:12:44.349Z,30.30
2018-07-21T14:15:12.768Z,30.30
2018-07-21T14:17:42.018Z,30.30
2018-07-21T14:20:10.234Z,30.30
2018-07-21T14:22:38.461Z,30.20
2018-07-21T14:27:41.401Z,30.00
2018-07-21T14:30:11.556Z,30.00
2018-07-21T14:32:39.819Z,29.80
2018-07-21T14:35:08.510Z,29.90
2018-07-21T14:37:36.730Z,30.10
2018-07-21T14:40:05.305Z,30.30
2018-07-21T14:42:33.614Z,30.30
2018-07-21T14:45:01.875Z,30.40
2018-07-21T14:47:30.146Z,30.40
2018-07-21T14:49:58.382Z,30.50
2018-07-21T14:52:26.658Z,30.60
2018-07-21T14:54:55.314Z,30.50
2018-07-21T14:57:23.577Z,30.50
2018-07-21T14:59:51.800Z,30.40
2018-07-21T15:02:20.114Z,30.20
2018-07-21T15:04:48.337Z,30.20
2018-07-21T15:07:16.571Z,30.20
2018-07-21T15:09:45.099Z,30.20
2018-07-21T15:12:13.346Z,30.10
2018-07-21T15:14:41.807Z,30.10
2018-07-21T15:17:10.388Z,30.30
2018-07-21T15:19:38.645Z,30.40
2018-07-21T15:22:07.548Z,30.60
2018-07-21T15:24:35.793Z,30.70
2018-07-21T15:27:04.073Z,30.60
2018-07-21T15:29:32.598Z,30.50
2018-07-21T15:32:00.967Z,30.40
2018-07-21T15:34:29.200Z,30.50
2018-07-21T15:36:57.501Z,30.40
2018-07-21T15:39:25.735Z,30.60
2018-07-21T15:41:54.019Z,30.70
2018-07-21T15:44:22.246Z,30.80
2018-07-21T15:46:50.519Z,30.80
2018-07-21T15:49:19.323Z,30.90
2018-07-21T15:51:47.542Z,30.90
2018-07-21T15:54:15.835Z,30.70
2018-07-21T15:56:44.083Z,30.50
2018-07-21T15:59:12.348Z,30.30
2018-07-21T16:01:40.603Z,30.20
2018-07-21T16:04:08.854Z,30.20
2018-07-21T16:06:37.246Z,30.20
2018-07-21T16:09:07.916Z,30.10
2018-07-21T16:11:36.266Z,30.00
2018-07-21T16:14:04.577Z,29.80
2018-07-21T16:16:32.814Z,29.60
2018-07-21T16:19:01.085Z,29.50
2018-07-21T16:21:29.305Z,29.40
2018-07-21T16:23:57.677Z,29.30
2018-07-21T16:26:25.883Z,29.30
2018-07-21T16:28:54.097Z,29.30
2018-07-21T16:31:22.306Z,29.30
2018-07-21T16:33:52.039Z,29.30
2018-07-21T16:36:20.278Z,29.30
2018-07-21T16:38:48.526Z,29.20
2018-07-21T16:41:16.835Z,29.30
2018-07-21T16:43:45.098Z,29.20
2018-07-21T16:46:13.294Z,29.20
2018-07-21T16:48:41.546Z,29.10
2018-07-21T16:51:09.739Z,29.00
2018-07-21T16:53:37.949Z,28.90
2018-07-21T16:56:06.144Z,28.90
2018-07-21T16:58:34.386Z,28.80
2018-07-21T17:01:02.645Z,28.70
2018-07-21T17:03:30.847Z,28.70
2018-07-21T17:05:59.044Z,28.60
2018-07-21T17:08:27.285Z,28.50
2018-07-21T17:10:55.499Z,28.50
2018-07-21T17:13:23.762Z,28.40
2018-07-21T17:15:52.041Z,28.40
2018-07-21T17:18:20.261Z,28.30
2018-07-21T17:20:48.498Z,28.30
2018-07-21T17:23:16.778Z,28.30
2018-07-21T17:25:44.967Z,28.30
2018-07-21T17:28:13.194Z,28.30
2018-07-21T17:30:41.451Z,28.30
2018-07-21T17:33:09.658Z,28.20
2018-07-21T17:35:37.875Z,28.20
2018-07-21T17:38:06.103Z,28.10
2018-07-21T17:40:34.340Z,28.10
2018-07-21T17:43:02.604Z,28.10
2018-07-21T17:45:30.793Z,28.10
2018-07-21T17:47:59.034Z,28.00
2018-07-21T17:50:27.234Z,27.90
2018-07-21T17:52:55.591Z,27.90
2018-07-21T17:55:23.851Z,27.90
2018-07-21T17:57:52.122Z,27.80
2018-07-21T18:00:20.388Z,27.80
2018-07-21T18:02:48.674Z,27.80
2018-07-21T18:05:16.900Z,27.80
2018-07-21T18:07:45.177Z,27.80
2018-07-21T18:10:13.387Z,27.80
2018-07-21T18:12:41.682Z,27.80
2018-07-21T18:15:09.925Z,27.80
2018-07-21T18:17:38.183Z,27.80
2018-07-21T18:20:06.398Z,27.70
2018-07-21T18:22:34.606Z,27.70
2018-07-21T18:25:02.860Z,27.70
2018-07-21T18:27:31.103Z,27.70
2018-07-21T18:32:27.439Z,27.60
2018-07-21T18:34:56.018Z,27.60
2018-07-21T18:37:24.579Z,27.60
2018-07-21T18:39:52.971Z,27.60
2018-07-21T18:42:21.624Z,27.50
2018-07-21T18:44:49.942Z,27.50
2018-07-21T18:47:18.161Z,27.40
2018-07-21T18:49:46.418Z,27.30
2018-07-21T18:52:14.714Z,27.30
2018-07-21T18:54:43.984Z,27.30
2018-07-21T18:57:12.182Z,27.10
2018-07-21T18:59:40.504Z,27.10
2018-07-21T19:02:08.848Z,27.00
2018-07-21T19:04:37.165Z,27.00
2018-07-21T19:07:05.986Z,26.90
2018-07-21T19:09:34.250Z,26.90
2018-07-21T19:12:08.072Z,26.80
2018-07-21T19:14:37.291Z,26.80
2018-07-21T19:17:05.587Z,26.70
2018-07-21T19:19:39.034Z,26.70
2018-07-21T19:22:07.319Z,26.70
2018-07-21T19:24:35.607Z,26.70
2018-07-21T19:27:37.746Z,26.70
2018-07-21T19:30:06.412Z,26.70
2018-07-21T19:32:40.508Z,26.60
2018-07-21T19:35:09.098Z,26.50
2018-07-21T19:37:42.812Z,26.50
2018-07-21T19:40:11.103Z,26.50
2018-07-21T19:42:39.278Z,26.40
2018-07-21T19:45:07.691Z,26.40
2018-07-21T19:47:36.100Z,26.40
2018-07-21T19:50:04.526Z,26.30
2018-07-21T19:52:34.028Z,26.30
2018-07-21T19:55:03.523Z,26.20
2018-07-21T19:57:31.758Z,26.20
2018-07-21T20:00:00.093Z,26.20
2018-07-21T20:02:28.314Z,26.20
2018-07-21T20:04:56.537Z,26.10
2018-07-21T20:07:24.800Z,26.10
2018-07-21T20:09:52.998Z,26.10
2018-07-21T20:14:49.817Z,26.10
2018-07-21T20:17:18.095Z,26.10
2018-07-21T20:19:46.285Z,26.10
2018-07-21T20:22:14.735Z,26.10
2018-07-21T20:24:43.057Z,26.10
2018-07-21T20:27:11.417Z,26.00
2018-07-21T20:29:39.711Z,26.00
2018-07-21T20:32:08.068Z,26.00
2018-07-21T20:34:36.370Z,25.90
2018-07-21T20:37:04.935Z,25.90
2018-07-21T20:39:33.486Z,25.90
2018-07-21T20:42:01.851Z,25.90
2018-07-21T20:44:30.103Z,25.80
2018-07-21T20:46:58.424Z,25.80
2018-07-21T20:49:26.725Z,25.80
2018-07-21T20:51:55.099Z,25.80
2018-07-21T20:54:23.319Z,25.80
2018-07-21T20:56:52.327Z,25.80
2018-07-21T20:59:20.551Z,25.70
2018-07-21T21:01:48.778Z,25.70
2018-07-21T21:04:17.050Z,25.70
2018-07-21T21:06:45.295Z,25.60
2018-07-21T21:14:09.816Z,25.40
2018-07-21T21:16:38.092Z,25.30
2018-07-21T21:19:06.377Z,25.30
2018-07-21T21:21:34.656Z,25.20
2018-07-21T21:24:02.938Z,25.20
2018-07-21T21:26:31.183Z,25.30
2018-07-21T21:28:59.409Z,25.30
2018-07-21T21:31:27.661Z,25.30
2018-07-21T21:33:55.946Z,25.30
2018-07-21T21:36:24.312Z,25.40
2018-07-21T21:38:52.522Z,25.30
2018-07-21T21:41:21.226Z,25.30
2018-07-21T21:43:49.547Z,25.20
2018-07-21T21:48:46.101Z,25.10
2018-07-21T21:51:14.306Z,25.10
2018-07-21T21:53:42.506Z,25.20
2018-07-21T21:56:10.799Z,25.20
2018-07-21T21:58:39.074Z,25.20
2018-07-21T22:01:08.992Z,25.10
2018-07-21T22:03:37.316Z,25.10
2018-07-21T22:06:05.850Z,25.10
2018-07-21T22:08:34.247Z,25.00
2018-07-21T22:11:02.979Z,25.00
2018-07-21T22:13:31.285Z,25.00
2018-07-21T22:15:59.998Z,25.10
2018-07-21T22:18:29.252Z,25.10
2018-07-21T22:20:57.446Z,25.10
2018-07-21T22:23:25.626Z,25.10
2018-07-21T22:25:53.865Z,25.10
2018-07-21T22:28:22.102Z,25.00
2018-07-21T22:30:50.399Z,25.00
2018-07-21T22:33:18.611Z,24.90
2018-07-21T22:35:46.847Z,24.80
2018-07-21T22:38:15.070Z,24.80
2018-07-21T22:40:43.295Z,24.80
2018-07-21T22:43:11.574Z,24.80
2018-07-21T22:45:39.782Z,24.70
2018-07-21T22:48:08.024Z,24.70
2018-07-21T22:50:36.221Z,24.70
2018-07-21T22:53:04.512Z,24.60
2018-07-21T22:55:32.724Z,24.50
2018-07-21T22:58:00.988Z,24.40
2018-07-21T23:00:29.276Z,24.40
2018-07-21T23:02:57.606Z,24.40
2018-07-21T23:05:25.899Z,24.30
2018-07-21T23:07:54.157Z,24.20
2018-07-21T23:10:22.642Z,24.20
2018-07-21T23:12:51.329Z,24.10
2018-07-21T23:15:19.984Z,24.20
2018-07-21T23:17:48.210Z,24.10
2018-07-21T23:20:16.574Z,24.10
2018-07-21T23:22:44.835Z,24.10
2018-07-21T23:25:13.062Z,24.10
2018-07-21T23:27:41.341Z,24.10
2018-07-21T23:30:09.608Z,24.00
2018-07-21T23:32:37.823Z,24.00
2018-07-21T23:35:06.032Z,24.10
2018-07-21T23:37:34.248Z,24.10
2018-07-21T23:40:02.528Z,24.10
2018-07-21T23:42:31.303Z,24.00
2018-07-21T23:45:00.545Z,24.00
2018-07-21T23:47:28.770Z,23.90
2018-07-21T23:49:56.988Z,23.90
2018-07-21T23:52:25.210Z,23.90
2018-07-21T23:54:53.462Z,23.90
2018-07-21T23:57:21.883Z,23.90
2018-07-21T23:59:50.138Z,23.90
